Time;durP1;ratioP1;P1;durP2;ratioP2;P2;SDS_P1;SDS_P2;PMS_P1;PMS_P2;Temp;Humidity;BMP_temperature;BMP_pressure;BME280_temperature;BME280_humidity;BME280_pressure;Samples;Min_cycle;Max_cycle;Signal;HPM_P1;HPM_P2
2022/12/06 06:46:58;;;;;;;11.78;4.47;;;;;;;-5.93;55.54;102374.17;1679197;81;21289;-58
2022/12/06 06:50:16;;;;;;;13.08;5.45;;;;;;;-5.90;55.47;102374.16;1681853;82;21200;-56
2022/12/06 06:54:00;;;;;;;11.00;4.83;;;;;;;-5.86;55.46;102373.63;1682219;85;21255;-57
2022/12/06 06:57:14;;;;;;;21.70;6.12;;;;;;;-5.88;55.36;102381.65;1684606;83;21226;-57
2022/12/06 07:00:35;;;;;;;;;;;;;;;-5.80;55.46;102380.19;1618067;88;21244;-57
2022/12/06 07:04:30;;;;;;;11.38;4.75;;;;;;;-5.72;55.48;102372.95;1712128;79;20245;-56
2022/12/06 07:07:51;;;;;;;10.43;5.15;;;;;;;-5.54;55.60;102362.84;1857003;76;27993;-56
2022/12/06 07:11:11;;;;;;;12.85;4.70;;;;;;;-5.49;55.49;102368.98;1774852;79;21236;-57
2022/12/06 07:14:40;;;;;;;8.73;4.40;;;;;;;-5.41;55.44;102359.05;1758459;80;21397;-58
2022/12/06 07:18:00;;;;;;;10.98;4.75;;;;;;;-5.33;55.41;102361.13;1773393;80;21919;-57
2022/12/06 07:21:22;;;;;;;10.72;4.90;;;;;;;-5.26;55.46;102366.77;1756677;80;21307;-57
2022/12/06 07:28:12;;;;;;;9.25;4.55;;;;;;;-5.02;55.49;102350.30;1851796;76;22283;-57
2022/12/06 07:31:40;;;;;;;8.65;4.47;;;;;;;-5.05;55.41;102365.04;1756446;81;21216;-57
2022/12/06 07:35:08;;;;;;;9.35;4.80;;;;;;;-5.00;55.43;102359.16;1750579;81;21267;-57
2022/12/06 07:38:59;;;;;;;8.40;3.90;;;;;;;-4.97;55.38;102358.20;1763736;79;21406;-57
2022/12/06 07:46:58;;;;;;;6.72;3.30;;;;;;;-4.87;55.42;102351.30;1762270;79;21221;-57
2022/12/06 07:50:41;;;;;;;8.23;3.42;;;;;;;-4.80;55.46;102348.95;1656076;85;21264;-58
2022/12/06 07:54:14;;;;;;;8.45;4.05;;;;;;;-4.78;55.34;102343.57;1654702;85;21486;-58
2022/12/06 07:57:45;;;;;;;6.90;3.90;;;;;;;-4.74;55.36;102339.95;1625067;86;21324;-57
2022/12/06 08:01:18;;;;;;;8.15;4.50;;;;;;;-4.64;55.46;102331.69;1641506;85;21653;-57
2022/12/06 08:05:11;;;;;;;5.72;3.47;;;;;;;-4.57;55.41;102339.98;1654567;86;22149;-56
2022/12/06 08:08:39;;;;;;;7.37;3.50;;;;;;;-4.57;55.33;102334.23;1633991;86;21235;-57
2022/12/06 08:12:03;;;;;;;8.88;3.92;;;;;;;-4.52;55.44;102330.56;1623111;86;21571;-55
2022/12/06 08:16:00;;;;;;;8.75;3.83;;;;;;;-4.41;55.48;102324.52;1634056;86;21236;-54
2022/12/06 08:19:32;;;;;;;7.40;3.58;;;;;;;-4.33;55.48;102322.55;1652456;81;21267;-58
2022/12/06 08:23:11;;;;;;;9.13;4.03;;;;;;;-4.23;55.47;102317.87;1624491;86;21818;-57
2022/12/06 08:37:02;;;;;;;9.13;4.62;;;;;;;-3.76;55.67;102309.57;1849277;77;22824;-58
2022/12/06 08:58:50;;;;;;;7.55;4.03;;;;;;;-3.10;55.53;102277.86;1753640;79;22977;-55
2022/12/06 09:02:06;;;;;;;13.53;6.00;;;;;;;-3.14;55.48;102282.02;1704968;83;21228;-58
2022/12/06 09:05:26;;;;;;;8.93;3.90;;;;;;;-3.13;55.45;102263.22;1701117;84;21797;-55
2022/12/06 09:09:00;;;;;;;8.05;4.35;;;;;;;-3.02;55.51;102262.01;1700583;83;21753;-55
2022/12/06 09:15:52;;;;;;;13.48;4.10;;;;;;;-2.77;55.53;102257.23;1680547;84;21239;-57
2022/12/06 09:19:06;;;;;;;9.25;4.05;;;;;;;-2.70;55.43;102252.11;1690637;83;21301;-56
2022/12/06 09:26:09;;;;;;;7.67;3.83;;;;;;;-2.47;55.45;102236.63;1675757;85;21578;-55
2022/12/06 09:29:30;;;;;;;6.87;3.58;;;;;;;-2.34;55.44;102221.91;1652591;85;21256;-56
2022/12/06 09:32:59;;;;;;;8.40;3.40;;;;;;;-2.24;55.40;102210.86;1685918;84;21222;-54
2022/12/06 09:45:17;;;;;;;6.72;3.65;;;;;;;-1.88;55.40;102188.59;1724372;81;21378;-55
2022/12/06 09:49:27;;;;;;;7.50;3.72;;;;;;;-1.74;55.36;102186.30;1700492;82;21275;-57
2022/12/06 10:03:55;;;;;;;6.40;3.85;;;;;;;-1.22;55.27;102167.84;1822788;75;22314;-56
2022/12/06 10:07:59;;;;;;;10.15;4.78;;;;;;;-1.06;55.31;102151.55;1870591;76;22187;-56
2022/12/06 10:12:23;;;;;;;6.70;3.10;;;;;;;-1.06;55.25;102147.02;1746143;81;22027;-56
2022/12/06 10:16:16;;;;;;;8.03;3.30;;;;;;;-0.92;55.12;102138.44;1782053;78;21167;-57
2022/12/06 10:39:13;;;;;;;5.08;2.87;;;;;;;0.05;54.98;102090.34;1797377;79;22344;-58
2022/12/06 10:43:19;;;;;;;6.15;2.75;;;;;;;0.03;54.84;102090.91;1740369;79;21556;-58
2022/12/06 10:47:05;;;;;;;7.17;2.60;;;;;;;0.13;54.64;102076.07;1846285;75;22243;-56
2022/12/06 10:50:37;;;;;;;;;;;;;;;0.10;54.59;102078.91;1755585;81;21495;-55
2022/12/06 10:54:34;;;;;;;7.95;3.67;;;;;;;0.11;54.46;102061.83;1743757;78;20210;-58
2022/12/06 10:58:32;;;;;;;7.17;3.10;;;;;;;0.11;54.29;102058.25;1709142;79;21928;-56
2022/12/06 11:02:07;;;;;;;7.33;2.40;;;;;;;0.11;54.32;102052.87;1698207;78;21294;-57
2022/12/06 11:05:38;;;;;;;5.25;2.65;;;;;;;0.18;54.24;102046.24;1750447;78;21864;-56
2022/12/06 11:14:22;;;;;;;6.33;2.67;;;;;;;0.39;54.35;102038.08;1737494;78;21519;-55
2022/12/06 11:29:17;;;;;;;7.45;3.60;;;;;;;0.67;54.01;102016.95;1792564;76;21324;-56
2022/12/06 11:33:20;;;;;;;8.75;2.92;;;;;;;0.75;54.01;102014.77;1791677;77;21543;-59
2022/12/06 11:48:12;;;;;;;6.83;2.75;;;;;;;1.17;53.84;102014.00;1796034;77;21300;-61
2022/12/06 11:55:15;;;;;;;5.92;2.72;;;;;;;1.32;53.53;102013.71;1711767;78;21204;-60
2022/12/06 11:59:13;;;;;;;3.87;2.22;;;;;;;1.36;53.40;102017.52;1650748;79;21309;-57
2022/12/06 12:10:03;;;;;;;5.62;2.45;;;;;;;1.30;53.08;101998.95;1705197;79;21236;-56
2022/12/06 12:13:50;;;;;;;7.28;2.50;;;;;;;1.34;53.06;101995.17;1701481;79;21726;-56
2022/12/06 12:25:04;;;;;;;9.85;3.87;;;;;;;1.61;52.95;101981.19;1755054;78;21573;-56
2022/12/06 12:28:39;;;;;;;7.70;3.60;;;;;;;1.64;52.79;101979.67;1742567;79;21209;-56
2022/12/06 12:32:11;;;;;;;7.42;3.10;;;;;;;1.64;52.65;101976.98;1762908;77;21212;-56
2022/12/06 12:35:39;;;;;;;8.08;3.15;;;;;;;1.66;52.57;101967.86;1771198;75;22229;-56
2022/12/06 12:48:35;;;;;;;4.62;2.70;;;;;;;1.87;52.30;101955.05;1756437;78;21394;-57
2022/12/06 12:52:12;;;;;;;8.85;3.20;;;;;;;1.85;52.27;101955.13;1685333;82;21781;-61
2022/12/06 12:55:55;;;;;;;7.33;3.10;;;;;;;1.81;52.02;101955.39;1869368;76;22572;-60
2022/12/06 12:59:34;;;;;;;10.88;3.45;;;;;;;1.69;51.98;101955.55;1742528;78;21252;-60
2022/12/06 13:03:21;;;;;;;5.47;3.00;;;;;;;1.65;51.93;101957.15;1719869;81;21236;-60
2022/12/06 13:06:56;;;;;;;16.30;5.80;;;;;;;1.63;51.92;101947.79;1776490;79;21233;-61
2022/12/06 13:10:58;;;;;;;9.78;4.28;;;;;;;1.53;51.82;101953.26;1768245;79;21150;-60
2022/12/06 13:19:04;;;;;;;6.95;3.35;;;;;;;1.30;51.65;101947.70;1858434;75;22228;-60
2022/12/06 13:22:32;;;;;;;7.67;3.92;;;;;;;1.18;51.54;101946.99;1781847;78;21197;-61
2022/12/06 13:26:15;;;;;;;8.13;4.35;;;;;;;1.10;51.62;101936.19;1771821;78;21201;-57
2022/12/06 13:33:41;;;;;;;8.35;4.60;;;;;;;0.83;51.37;101930.84;1802283;78;21545;-58
2022/12/06 13:37:33;;;;;;;6.20;4.30;;;;;;;0.61;51.27;101920.26;1772597;78;21263;-56
2022/12/06 13:49:00;;;;;;;6.40;3.72;;;;;;;0.24;51.27;101909.52;1642079;80;21247;-56
2022/12/06 13:56:56;;;;;;;17.35;8.30;;;;;;;-0.05;50.99;101910.03;1875721;76;22219;-55
2022/12/06 14:11:06;;;;;;;8.58;4.97;;;;;;;-0.65;50.85;101907.44;1797471;76;22562;-57
2022/12/06 14:15:09;;;;;;;10.63;5.83;;;;;;;-0.78;50.83;101909.80;1749936;77;21214;-57
2022/12/06 14:19:09;;;;;;;8.60;5.05;;;;;;;-0.86;50.79;101905.68;1821312;73;28243;-60
2022/12/06 14:22:36;;;;;;;9.70;4.55;;;;;;;-0.89;50.69;101899.98;1755650;79;21284;-60
2022/12/06 14:37:03;;;;;;;13.58;7.40;;;;;;;-1.22;50.48;101893.83;1813542;76;28382;-56
2022/12/06 14:45:17;;;;;;;22.55;10.08;;;;;;;-1.32;50.29;101895.14;1755633;79;21185;-56
2022/12/06 14:50:22;;;;;;;29.55;13.13;;;;;;;-1.47;50.29;101892.61;1761738;78;21413;-56
2022/12/06 14:51:56;;;;;;;39.70;16.73;;;;;;;-1.51;50.27;101887.83;1879743;75;22261;-55
2022/12/06 15:06:28;;;;;;;29.92;13.83;;;;;;;-1.80;50.33;101875.20;1924327;74;22236;-56
2022/12/06 15:10:08;;;;;;;22.32;12.43;;;;;;;-1.90;50.32;101881.40;1822477;76;21220;-56
2022/12/06 15:13:38;;;;;;;25.88;11.90;;;;;;;-1.96;50.28;101876.73;1803613;78;22042;-58
2022/12/06 15:17:18;;;;;;;24.90;11.85;;;;;;;-2.03;50.23;101877.44;1812726;77;21162;-58
2022/12/06 15:20:47;;;;;;;26.23;12.03;;;;;;;-2.07;50.17;101881.20;1827260;77;21130;-57
2022/12/06 15:24:36;;;;;;;21.77;9.60;;;;;;;-2.11;50.15;101873.33;1823906;77;21410;-58
2022/12/06 15:28:18;;;;;;;;;;;;;;;-2.18;50.08;101872.69;1839517;77;21398;-58
2022/12/06 15:31:46;;;;;;;16.40;9.25;;;;;;;-2.24;50.01;101872.94;1797052;77;20211;-58
2022/12/06 15:35:08;;;;;;;22.03;10.00;;;;;;;-2.31;49.99;101874.55;1822866;77;21232;-58
2022/12/06 15:38:49;;;;;;;21.65;10.25;;;;;;;-2.37;49.92;101881.03;1833842;78;21271;-58
2022/12/06 15:42:34;;;;;;;34.00;16.00;;;;;;;-2.43;49.89;101885.29;1821730;77;21188;-58
2022/12/06 15:46:28;;;;;;;33.20;15.05;;;;;;;-2.50;49.83;101881.08;1834509;78;21339;-57
2022/12/06 15:49:56;;;;;;;18.17;9.40;;;;;;;-2.55;49.76;101882.20;1811515;78;21255;-59
2022/12/06 15:53:33;;;;;;;17.55;8.55;;;;;;;-2.62;49.73;101883.34;1767265;80;21605;-59
2022/12/06 15:57:03;;;;;;;16.23;8.60;;;;;;;-2.67;49.68;101892.89;1812124;77;21211;-58
2022/12/06 16:00:26;;;;;;;30.57;16.37;;;;;;;-2.73;49.69;101886.42;1815555;77;21370;-58
2022/12/06 16:04:31;;;;;;;22.30;12.03;;;;;;;-2.75;49.69;101890.95;1832353;77;21312;-59
2022/12/06 16:08:10;;;;;;;18.77;9.78;;;;;;;-2.78;49.71;101887.05;1772748;76;21582;-59
2022/12/06 16:11:51;;;;;;;19.67;9.15;;;;;;;-2.80;49.72;101892.03;1811123;78;21567;-60
2022/12/06 16:15:27;;;;;;;15.63;6.83;;;;;;;-2.77;49.67;101873.16;1913626;74;22229;-58
2022/12/06 16:27:00;;;;;;;12.43;5.45;;;;;;;-2.89;49.72;101873.16;1859114;73;21161;-61
2022/12/06 16:30:30;;;;;;;11.38;5.37;;;;;;;-2.87;49.69;101869.08;1881222;76;22957;-60
2022/12/06 16:34:27;;;;;;;8.80;5.10;;;;;;;-2.94;49.66;101875.58;1762807;80;21238;-58
2022/12/06 16:38:08;;;;;;;14.03;5.58;;;;;;;-2.98;49.67;101872.12;1750575;81;21718;-59
2022/12/06 16:42:05;;;;;;;10.00;5.00;;;;;;;-2.98;49.69;101869.45;1825177;78;21193;-58
2022/12/06 16:45:40;;;;;;;15.30;5.65;;;;;;;-2.98;49.72;101872.12;1799324;78;22047;-59
2022/12/06 16:49:33;;;;;;;15.60;7.28;;;;;;;-2.93;49.66;101867.48;1844836;75;22357;-60
2022/12/06 16:57:00;;;;;;;11.90;4.37;;;;;;;-2.93;49.63;101859.94;1875396;76;22207;-59
2022/12/06 17:00:41;;;;;;;8.58;4.70;;;;;;;-3.00;49.60;101844.55;1786729;79;21213;-59
2022/12/06 17:04:24;;;;;;;7.83;4.25;;;;;;;-3.00;49.55;101846.34;1722405;82;21224;-59
2022/12/06 17:08:06;;;;;;;10.75;4.42;;;;;;;-3.01;49.53;101845.45;1719740;82;21253;-59
2022/12/06 17:12:11;;;;;;;7.87;4.20;;;;;;;-3.02;49.50;101853.55;1675040;85;21216;-58
2022/12/06 17:15:39;;;;;;;9.78;4.37;;;;;;;-3.06;49.47;101861.69;1646521;85;21749;-59
2022/12/06 17:19:35;;;;;;;8.25;3.62;;;;;;;-3.08;49.45;101855.98;1657854;85;22059;-59
2022/12/06 17:23:01;;;;;;;10.30;4.03;;;;;;;-3.04;49.45;101845.56;1870958;76;22230;-59
2022/12/06 17:30:32;;;;;;;8.55;4.15;;;;;;;-3.09;49.43;101839.49;1702014;78;20604;-59
2022/12/06 17:38:16;;;;;;;8.85;4.12;;;;;;;-3.19;49.27;101818.86;1698799;84;22087;-59
2022/12/06 17:56:46;;;;;;;7.25;3.60;;;;;;;-3.30;49.21;101809.48;1801013;77;22260;-59
2022/12/06 18:00:31;;;;;;;8.83;3.62;;;;;;;-3.33;49.19;101806.91;1827043;76;22834;-58
2022/12/06 18:18:10;;;;;;;9.05;3.72;;;;;;;-3.49;49.06;101804.36;1917180;73;22857;-58
2022/12/06 18:22:15;;;;;;;6.15;3.72;;;;;;;-3.59;49.03;101802.46;1822209;77;21853;-58
2022/12/06 18:25:48;;;;;;;7.83;3.75;;;;;;;-3.58;49.12;101792.61;1696718;81;21323;-59
2022/12/06 18:33:42;;;;;;;8.98;4.03;;;;;;;-3.50;49.11;101787.87;1894041;73;22880;-58
2022/12/06 18:37:31;;;;;;;9.58;4.55;;;;;;;-3.55;49.08;101783.17;1819550;74;21263;-59
2022/12/06 18:41:18;;;;;;;7.08;4.40;;;;;;;-3.57;49.09;101779.66;1817334;75;21143;-59
2022/12/06 18:45:10;;;;;;;8.35;4.50;;;;;;;-3.57;49.10;101773.82;1810094;76;21206;-59
2022/12/06 18:48:58;;;;;;;10.18;4.70;;;;;;;-3.55;49.06;101768.45;1775913;77;21214;-58
2022/12/06 18:56:24;;;;;;;6.65;3.70;;;;;;;-3.56;48.94;101758.66;1870332;75;22211;-59
2022/12/06 18:59:55;;;;;;;6.90;4.03;;;;;;;-3.66;48.93;101760.77;1766668;78;21301;-58
2022/12/06 19:04:15;;;;;;;13.10;5.97;;;;;;;-3.68;48.91;101763.95;1778559;79;21203;-59
2022/12/06 19:07:48;;;;;;;;;;;;;;;-3.67;48.97;101758.16;1788408;78;21243;-59
2022/12/06 19:11:42;;;;;;;8.70;4.55;;;;;;;-3.65;48.90;101750.50;1884604;76;23079;-59
2022/12/06 19:15:21;;;;;;;8.43;4.28;;;;;;;-3.62;48.95;101746.38;1867290;75;22262;-59
2022/12/06 19:19:24;;;;;;;9.63;4.78;;;;;;;-3.62;48.96;101754.86;1828879;77;21421;-58
2022/12/06 19:22:52;;;;;;;9.30;4.35;;;;;;;-3.60;48.87;101755.69;1816845;77;21244;-59
2022/12/06 19:26:33;;;;;;;8.08;4.30;;;;;;;-3.57;48.90;101752.91;1801145;76;21228;-58
2022/12/06 19:30:00;;;;;;;7.62;4.25;;;;;;;-3.43;48.94;101750.16;1869983;72;22306;-59
2022/12/06 19:33:27;;;;;;;9.35;4.67;;;;;;;-3.47;48.88;101746.27;1826811;76;21329;-59
2022/12/06 19:37:08;;;;;;;8.50;4.65;;;;;;;-3.45;48.85;101750.66;1884872;76;22669;-59
2022/12/06 19:40:56;;;;;;;7.10;4.33;;;;;;;-3.53;48.81;101743.83;1811391;78;21230;-59
2022/12/06 21:25:27;;;;;;;7.33;4.20;;;;;;;-3.57;48.76;101748.89;1726495;81;21240;-59
2022/12/06 21:29:05;;;;;;;13.60;5.67;;;;;;;-3.53;48.60;101698.33;1869306;76;27993;-58
2022/12/06 21:33:11;;;;;;;12.85;4.83;;;;;;;-3.55;48.46;101699.73;1840795;76;21197;-58
2022/12/06 21:37:13;;;;;;;8.90;5.15;;;;;;;-3.52;48.37;101705.45;1826391;77;21152;-58
2022/12/06 21:45:22;;;;;;;12.33;5.58;;;;;;;-3.54;48.34;101689.91;1814783;78;22155;-58
2022/12/06 21:49:20;;;;;;;8.93;4.95;;;;;;;-3.52;48.38;101681.37;1819952;78;21190;-58
2022/12/06 21:53:10;;;;;;;10.82;5.15;;;;;;;-3.53;48.35;101688.52;1775921;79;21605;-58
2022/12/06 21:56:28;;;;;;;10.75;4.25;;;;;;;-3.42;48.38;101676.06;1857978;76;22199;-58
2022/12/06 22:00:18;;;;;;;13.20;4.97;;;;;;;-3.45;48.43;101672.17;1719702;82;21732;-58
2022/12/06 22:04:03;;;;;;;10.58;5.12;;;;;;;-3.38;48.43;101673.70;1724008;82;21222;-58
2022/12/06 22:07:39;;;;;;;11.40;5.47;;;;;;;-3.28;48.49;101660.36;1737232;82;21197;-57
2022/12/06 22:11:25;;;;;;;11.68;4.95;;;;;;;-3.24;48.48;101653.52;1715890;83;21267;-57
2022/12/06 22:15:18;;;;;;;13.00;5.65;;;;;;;-3.09;48.45;101646.68;1853430;76;22250;-57
2022/12/06 22:18:35;;;;;;;8.68;4.55;;;;;;;-3.12;48.46;101645.46;1801868;78;21720;-58
2022/12/06 22:22:12;;;;;;;30.50;12.50;;;;;;;-3.10;48.40;101633.78;1800574;79;21172;-57
2022/12/06 22:26:04;;;;;;;11.75;5.78;;;;;;;-3.18;48.24;101633.66;1812459;79;21401;-58
2022/12/06 22:30:07;;;;;;;9.53;5.15;;;;;;;-3.21;48.27;101615.92;1806818;78;21183;-58
2022/12/06 22:33:55;;;;;;;20.85;5.50;;;;;;;-3.14;48.37;101617.89;1784234;78;21215;-59
2022/12/06 22:45:08;;;;;;;;;;;;;;;-3.03;48.39;101626.38;1645507;86;21298;-58
2022/12/06 22:49:03;;;;;;;12.80;5.58;;;;;;;-3.03;48.29;101628.17;1630984;87;20205;-58
2022/12/06 22:52:34;;;;;;;10.48;5.30;;;;;;;-3.12;48.24;101624.92;1649485;85;21756;-58
2022/12/06 22:56:39;;;;;;;11.53;5.95;;;;;;;-3.14;48.27;101624.59;1625179;88;21343;-58
2022/12/06 23:00:27;;;;;;;13.18;5.40;;;;;;;-3.07;48.32;101610.02;1855881;74;22309;-57
2022/12/06 23:04:21;;;;;;;12.03;5.50;;;;;;;-3.10;48.35;101618.17;1807073;77;21196;-58
2022/12/06 23:08:01;;;;;;;11.90;6.42;;;;;;;-3.02;48.35;101600.00;1842064;76;39232;-58
2022/12/06 23:12:15;;;;;;;11.83;5.72;;;;;;;-3.00;48.27;101601.27;1705509;83;21234;-58
2022/12/06 23:16:07;;;;;;;11.12;5.37;;;;;;;-2.94;48.33;101577.80;1688183;85;21760;-58
2022/12/06 23:20:10;;;;;;;13.05;5.30;;;;;;;-2.93;48.28;101593.41;1686437;85;21277;-58
2022/12/06 23:23:31;;;;;;;11.80;5.90;;;;;;;-2.93;48.33;101582.70;1686461;84;21230;-57
2022/12/06 23:26:49;;;;;;;13.05;5.03;;;;;;;-2.94;48.28;101585.84;1671642;84;21233;-58
2022/12/06 23:30:47;;;;;;;12.60;5.22;;;;;;;-2.94;48.30;101583.16;1667290;83;21209;-57
2022/12/06 23:34:16;;;;;;;14.60;5.33;;;;;;;-2.90;48.36;101575.38;1688253;84;21264;-57
2022/12/06 23:38:01;;;;;;;11.03;5.80;;;;;;;-3.00;48.29;101579.39;1685313;83;21229;-57
2022/12/06 23:41:48;;;;;;;14.33;5.92;;;;;;;-2.98;48.33;101577.98;1686676;84;21450;-58
2022/12/06 23:52:19;;;;;;;11.43;5.70;;;;;;;-2.93;48.41;101580.87;1720102;82;21283;-58
2022/12/06 23:55:59;;;;;;;12.85;5.25;;;;;;;-2.89;48.45;101578.48;1634807;86;21243;-58
2022/12/06 23:59:26;;;;;;;12.58;5.62;;;;;;;-2.87;48.40;101575.25;1613169;88;21231;-58
